createdAt,value
2019-01-04T00:03:21.748Z,11.75
2019-01-04T00:06:02.349Z,11.97
2019-01-04T00:08:43.053Z,12.05
2019-01-04T00:11:23.856Z,12.60
2019-01-04T00:14:04.798Z,11.95
2019-01-04T00:16:45.571Z,12.45
2019-01-04T00:19:26.044Z,12.20
2019-01-04T00:22:06.686Z,11.50
2019-01-04T00:24:47.284Z,11.53
2019-01-04T00:27:27.795Z,13.75
2019-01-04T00:30:08.304Z,12.80
2019-01-04T00:32:48.858Z,12.98
2019-01-04T00:35:27.823Z,13.43
2019-01-04T00:38:15.940Z,14.15
2019-01-04T00:41:03.880Z,14.13
2019-01-04T00:43:51.755Z,14.53
2019-01-04T00:46:39.886Z,13.58
2019-01-04T00:49:27.787Z,13.88
2019-01-04T00:52:15.684Z,14.45
2019-01-04T00:55:22.814Z,14.85
2019-01-04T00:58:29.971Z,13.85
2019-01-04T01:04:57.499Z,14.00
2019-01-04T01:08:04.669Z,13.62
2019-01-04T01:10:45.781Z,13.65
2019-01-04T01:13:26.419Z,13.25
2019-01-04T01:16:06.874Z,14.68
2019-01-04T01:18:47.664Z,14.03
2019-01-04T01:21:28.144Z,13.93
2019-01-04T01:24:08.877Z,14.28
2019-01-04T01:26:49.432Z,14.90
2019-01-04T01:29:30.207Z,13.80
2019-01-04T01:32:10.959Z,14.75
2019-01-04T01:37:34.368Z,15.05
2019-01-04T01:40:15.074Z,15.13
2019-01-04T01:42:55.443Z,14.28
2019-01-04T01:45:35.864Z,15.25
2019-01-04T01:48:16.521Z,14.90
2019-01-04T01:50:57.578Z,15.30
2019-01-04T01:53:38.325Z,15.03
2019-01-04T01:56:18.872Z,15.10
2019-01-04T01:58:59.242Z,14.73
2019-01-04T02:01:39.935Z,15.30
2019-01-04T02:04:20.772Z,15.03
2019-01-04T02:07:01.051Z,14.65
2019-01-04T02:09:41.502Z,14.93
2019-01-04T02:12:22.204Z,14.60
2019-01-04T02:15:02.872Z,14.55
2019-01-04T02:17:43.588Z,14.18
2019-01-04T02:20:24.366Z,14.55
2019-01-04T02:23:04.939Z,13.30
2019-01-04T02:25:45.625Z,14.20
2019-01-04T02:28:26.286Z,13.85
2019-01-04T02:31:06.952Z,14.00
2019-01-04T02:33:47.760Z,14.70
2019-01-04T02:36:28.679Z,14.50
2019-01-04T02:39:09.497Z,13.90
2019-01-04T02:41:50.299Z,15.32
2019-01-04T02:44:30.724Z,13.90
2019-01-04T02:47:11.725Z,14.90
2019-01-04T02:49:52.849Z,14.38
2019-01-04T02:52:33.415Z,14.90
2019-01-04T02:55:13.847Z,15.13
2019-01-04T02:57:54.405Z,14.95
2019-01-04T03:00:34.919Z,14.80
2019-01-04T03:03:15.410Z,14.90
2019-01-04T03:05:55.899Z,14.05
2019-01-04T03:08:36.603Z,14.68
2019-01-04T03:11:17.044Z,13.80
2019-01-04T03:13:57.443Z,15.28
2019-01-04T03:16:37.965Z,15.03
2019-01-04T03:19:18.541Z,14.93
2019-01-04T03:21:59.237Z,14.73
2019-01-04T03:24:39.567Z,14.55
2019-01-04T03:27:20.136Z,14.58
2019-01-04T03:30:00.586Z,14.18
2019-01-04T03:32:41.164Z,15.75
2019-01-04T03:35:22.252Z,15.55
2019-01-04T03:38:02.782Z,14.83
2019-01-04T03:40:43.072Z,13.75
2019-01-04T03:43:23.735Z,14.00
2019-01-04T03:46:04.336Z,14.83
2019-01-04T03:48:44.826Z,14.30
2019-01-04T03:51:25.438Z,14.58
2019-01-04T03:54:06.669Z,14.43
2019-01-04T03:56:47.077Z,13.88
2019-01-04T03:59:27.756Z,13.45
2019-01-04T04:02:08.575Z,13.65
2019-01-04T04:04:49.160Z,12.80
2019-01-04T04:07:29.603Z,12.95
2019-01-04T04:10:10.360Z,12.33
2019-01-04T04:12:50.794Z,11.22
2019-01-04T04:15:32.013Z,12.53
2019-01-04T04:18:12.615Z,11.97
2019-01-04T04:20:52.929Z,11.90
2019-01-04T04:23:33.240Z,11.25
2019-01-04T04:26:13.683Z,12.30
2019-01-04T04:28:54.193Z,11.45
2019-01-04T04:31:34.777Z,11.12
2019-01-04T04:34:15.597Z,11.30
2019-01-04T04:36:56.709Z,10.55
2019-01-04T04:39:37.776Z,10.55
2019-01-04T04:42:18.463Z,9.95
2019-01-04T04:44:59.212Z,9.43
2019-01-04T04:47:40.068Z,9.63
2019-01-04T04:50:20.627Z,9.95
2019-01-04T04:53:01.233Z,8.78
2019-01-04T04:55:41.827Z,9.50
2019-01-04T04:58:22.612Z,8.90
2019-01-04T05:03:46.647Z,9.10
2019-01-04T05:09:10.031Z,8.75
2019-01-04T05:11:50.579Z,7.78
2019-01-04T05:14:31.059Z,7.12
2019-01-04T05:19:54.529Z,7.78
2019-01-04T05:22:35.281Z,7.65
2019-01-04T05:25:16.793Z,7.97
2019-01-04T05:27:57.283Z,7.28
2019-01-04T05:30:38.024Z,7.90
2019-01-04T05:33:18.513Z,7.85
2019-01-04T05:35:58.928Z,7.95
2019-01-04T05:38:39.784Z,7.90
2019-01-04T05:41:20.749Z,7.97
2019-01-04T05:44:01.474Z,7.05
2019-01-04T05:46:41.800Z,7.78
2019-01-04T05:49:22.587Z,7.55
2019-01-04T05:54:46.303Z,7.72
2019-01-04T05:57:26.719Z,7.92
2019-01-04T06:00:07.236Z,8.53
2019-01-04T06:02:48.433Z,7.10
2019-01-04T06:05:29.103Z,7.95
2019-01-04T06:08:09.391Z,7.47
2019-01-04T06:10:49.893Z,8.20
2019-01-04T06:13:30.527Z,8.58
2019-01-04T06:16:11.198Z,8.45
2019-01-04T06:18:51.867Z,8.80
2019-01-04T06:21:32.243Z,9.45
2019-01-04T06:24:12.852Z,8.95
2019-01-04T06:26:53.187Z,8.50
2019-01-04T06:29:33.883Z,8.38
2019-01-04T06:32:14.600Z,8.63
2019-01-04T06:34:55.110Z,8.20
2019-01-04T06:37:35.579Z,8.75
2019-01-04T06:40:16.253Z,8.70
2019-01-04T06:42:56.882Z,8.75
2019-01-04T06:45:37.474Z,9.33
2019-01-04T06:48:18.295Z,9.25
2019-01-04T06:50:59.144Z,8.55
2019-01-04T06:53:40.111Z,8.43
2019-01-04T06:56:20.781Z,8.65
2019-01-04T06:59:01.437Z,8.70
2019-01-04T07:01:42.039Z,9.33
2019-01-04T07:04:22.924Z,8.90
2019-01-04T07:07:03.559Z,8.60
2019-01-04T07:09:44.405Z,9.10
2019-01-04T07:12:25.129Z,9.30
2019-01-04T07:15:05.751Z,9.25
2019-01-04T07:17:47.238Z,9.75
2019-01-04T07:20:28.164Z,9.73
2019-01-04T07:23:08.796Z,9.90
2019-01-04T07:25:49.244Z,9.65
2019-01-04T07:28:30.172Z,9.80
2019-01-04T07:31:10.816Z,9.43
2019-01-04T07:33:51.575Z,10.25
2019-01-04T07:36:32.608Z,9.30
2019-01-04T07:39:13.478Z,9.15
2019-01-04T07:41:54.084Z,9.05
2019-01-04T07:44:35.183Z,8.50
2019-01-04T07:47:15.985Z,9.40
2019-01-04T07:49:56.514Z,9.63
2019-01-04T07:52:37.244Z,9.03
2019-01-04T07:55:17.684Z,9.20
2019-01-04T07:57:58.523Z,8.88
2019-01-04T08:00:39.415Z,8.28
2019-01-04T08:03:20.391Z,9.65
2019-01-04T08:06:01.095Z,9.85
2019-01-04T08:08:41.896Z,10.20
2019-01-04T08:11:22.501Z,10.00
2019-01-04T08:14:03.240Z,10.95
2019-01-04T08:16:43.833Z,11.28
2019-01-04T08:19:24.905Z,10.90
2019-01-04T08:22:05.530Z,11.20
2019-01-04T08:24:46.083Z,11.30
2019-01-04T08:27:26.446Z,11.65
2019-01-04T08:30:06.888Z,11.78
2019-01-04T08:32:47.780Z,12.98
2019-01-04T08:35:28.535Z,11.70
2019-01-04T08:38:09.067Z,12.85
2019-01-04T08:40:52.223Z,13.47
2019-01-04T08:43:33.158Z,12.40
2019-01-04T08:46:13.911Z,13.18
2019-01-04T08:48:55.035Z,13.13
2019-01-04T08:51:36.226Z,13.00
2019-01-04T08:54:16.791Z,14.20
2019-01-04T08:56:57.199Z,10.45
2019-01-04T08:59:37.720Z,12.13
2019-01-04T09:02:18.654Z,13.43
2019-01-04T09:04:59.761Z,12.53
2019-01-04T09:07:40.139Z,12.60
2019-01-04T09:10:20.615Z,12.20
2019-01-04T09:13:01.289Z,12.65
2019-01-04T09:15:41.800Z,12.00
2019-01-04T09:18:22.119Z,12.43
2019-01-04T09:21:03.024Z,11.93
2019-01-04T09:23:43.716Z,11.13
2019-01-04T09:26:24.184Z,9.80
2019-01-04T09:29:04.813Z,11.45
2019-01-04T09:31:45.987Z,10.87
2019-01-04T09:34:26.360Z,10.35
2019-01-04T09:37:07.276Z,11.90
2019-01-04T09:39:47.814Z,11.35
2019-01-04T09:42:28.741Z,11.55
2019-01-04T09:45:09.300Z,10.63
2019-01-04T09:47:49.671Z,10.70
2019-01-04T09:50:30.171Z,10.13
2019-01-04T09:53:11.027Z,12.27
2019-01-04T09:58:32.636Z,9.85
2019-01-04T10:01:20.742Z,9.60
2019-01-04T10:04:08.635Z,8.60
2019-01-04T10:06:56.792Z,8.77
2019-01-04T10:09:44.668Z,8.23
2019-01-04T10:12:32.576Z,7.70
2019-01-04T10:15:20.468Z,6.10
2019-01-04T10:18:08.371Z,6.15
2019-01-04T10:20:56.296Z,7.10
2019-01-04T10:23:44.169Z,6.60
2019-01-04T10:26:24.525Z,6.67
2019-01-04T10:29:05.383Z,6.20
2019-01-04T10:31:45.966Z,6.60
2019-01-04T10:34:26.644Z,6.77
2019-01-04T10:37:07.571Z,6.50
2019-01-04T10:39:47.828Z,6.63
2019-01-04T10:42:28.600Z,6.00
2019-01-04T10:45:09.156Z,5.93
2019-01-04T10:47:50.160Z,5.10
2019-01-04T10:50:31.100Z,6.27
2019-01-04T10:53:11.708Z,5.87
2019-01-04T10:55:52.357Z,5.00
2019-01-04T11:01:15.977Z,5.70
2019-01-04T11:03:56.626Z,6.33
2019-01-04T11:06:37.459Z,6.17
2019-01-04T11:09:17.681Z,6.30
2019-01-04T11:11:58.656Z,5.80
2019-01-04T11:14:39.459Z,5.17
2019-01-04T11:17:20.192Z,5.63
2019-01-04T11:20:00.581Z,5.30
2019-01-04T11:22:41.180Z,6.00
2019-01-04T11:25:21.631Z,5.63
2019-01-04T11:28:02.324Z,5.83
2019-01-04T11:30:43.280Z,5.50
2019-01-04T11:33:23.926Z,6.13
2019-01-04T11:36:04.719Z,5.57
2019-01-04T11:38:45.496Z,5.40
2019-01-04T11:41:26.291Z,6.53
2019-01-04T11:44:06.600Z,5.80
2019-01-04T11:46:47.900Z,6.83
2019-01-04T11:49:28.293Z,7.87
2019-01-04T11:52:09.308Z,7.33
2019-01-04T11:57:32.323Z,7.10
2019-01-04T12:00:12.831Z,7.23
2019-01-04T12:02:53.644Z,6.80
2019-01-04T12:08:17.576Z,8.17
2019-01-04T12:10:57.936Z,8.90
2019-01-04T12:13:38.599Z,8.50
2019-01-04T12:16:19.667Z,7.97
2019-01-04T12:19:00.011Z,9.90
2019-01-04T12:21:40.633Z,7.90
2019-01-04T12:27:04.074Z,6.30
2019-01-04T12:29:44.925Z,6.07
2019-01-04T12:32:25.571Z,6.53
2019-01-04T12:35:06.288Z,5.37
2019-01-04T12:37:47.109Z,6.80
2019-01-04T12:40:27.772Z,6.47
2019-01-04T12:43:08.619Z,6.20
2019-01-04T12:45:49.448Z,7.17
2019-01-04T12:48:29.950Z,6.43
2019-01-04T12:51:10.752Z,7.00
2019-01-04T12:53:51.732Z,7.70
2019-01-04T12:56:32.373Z,6.83
2019-01-04T12:59:13.364Z,6.83
2019-01-04T13:01:54.104Z,7.30
2019-01-04T13:07:17.275Z,6.83
2019-01-04T13:09:57.975Z,7.57
2019-01-04T13:12:38.836Z,7.40
2019-01-04T13:15:19.205Z,6.90
2019-01-04T13:18:00.023Z,7.60
2019-01-04T13:20:40.826Z,6.87
2019-01-04T13:23:24.168Z,7.13
2019-01-04T13:26:05.112Z,8.20
2019-01-04T13:28:45.951Z,7.90
2019-01-04T13:31:26.871Z,8.63
2019-01-04T13:34:07.624Z,9.40
2019-01-04T13:36:48.364Z,7.63
2019-01-04T13:39:28.895Z,7.90
2019-01-04T13:42:09.740Z,7.33
2019-01-04T13:44:50.372Z,7.47
2019-01-04T13:47:32.310Z,7.40
2019-01-04T13:50:12.943Z,7.30
2019-01-04T13:52:53.662Z,8.03
2019-01-04T13:55:34.348Z,7.43
2019-01-04T13:58:15.047Z,8.70
2019-01-04T14:00:55.767Z,7.80
2019-01-04T14:03:36.541Z,8.87
2019-01-04T14:06:17.434Z,8.07
2019-01-04T14:08:58.097Z,8.07
2019-01-04T14:11:38.894Z,8.20
2019-01-04T14:14:19.515Z,9.00
2019-01-04T14:17:00.312Z,9.27
2019-01-04T14:19:41.106Z,8.10
2019-01-04T14:22:21.782Z,9.07
2019-01-04T14:25:02.633Z,9.53
2019-01-04T14:27:43.194Z,8.37
2019-01-04T14:30:23.480Z,8.70
2019-01-04T14:33:04.371Z,8.83
2019-01-04T14:35:45.301Z,8.97
2019-01-04T14:38:26.421Z,9.20
2019-01-04T14:41:06.892Z,9.67
2019-01-04T14:43:47.693Z,10.30
2019-01-04T14:46:28.075Z,10.57
2019-01-04T14:49:08.543Z,9.40
2019-01-04T14:51:49.209Z,10.87
2019-01-04T14:54:29.694Z,9.33
2019-01-04T14:57:10.304Z,9.63
2019-01-04T14:59:50.787Z,9.87
2019-01-04T15:02:31.439Z,10.40
2019-01-04T15:07:54.807Z,9.87
2019-01-04T15:10:35.459Z,10.10
2019-01-04T15:13:15.897Z,10.53
2019-01-04T15:18:38.472Z,10.37
2019-01-04T15:21:18.775Z,10.10
2019-01-04T15:23:59.147Z,10.90
2019-01-04T15:26:39.688Z,10.80
2019-01-04T15:29:20.259Z,10.80
2019-01-04T15:32:00.955Z,11.30
2019-01-04T15:34:41.395Z,11.20
2019-01-04T15:37:21.771Z,11.60
2019-01-04T15:40:02.260Z,11.70
2019-01-04T15:42:42.746Z,11.60
2019-01-04T15:45:23.412Z,11.93
2019-01-04T15:48:03.848Z,10.90
2019-01-04T15:50:44.491Z,12.03
2019-01-04T15:53:24.917Z,12.93
2019-01-04T15:56:05.571Z,11.63
2019-01-04T15:58:46.340Z,11.93
2019-01-04T16:01:27.172Z,12.07
2019-01-04T16:04:07.679Z,12.60
2019-01-04T16:06:48.126Z,12.80
2019-01-04T16:09:28.958Z,11.00
2019-01-04T16:12:09.920Z,11.23
2019-01-04T16:14:50.272Z,13.67
2019-01-04T16:17:30.918Z,12.07
2019-01-04T16:20:11.292Z,12.60
2019-01-04T16:22:51.823Z,11.73
2019-01-04T16:25:32.316Z,11.90
2019-01-04T16:28:13.019Z,11.70
2019-01-04T16:30:53.307Z,12.00
2019-01-04T16:33:33.767Z,12.57
2019-01-04T16:36:14.707Z,12.70
2019-01-04T16:38:55.318Z,13.27
2019-01-04T16:41:36.067Z,12.30
2019-01-04T16:44:16.948Z,12.10
2019-01-04T16:46:57.240Z,12.87
2019-01-04T16:49:38.270Z,12.33
2019-01-04T16:52:18.883Z,12.77
2019-01-04T16:54:59.900Z,12.10
2019-01-04T16:57:40.721Z,12.30
2019-01-04T17:00:21.592Z,11.43
2019-01-04T17:03:04.297Z,12.60
2019-01-04T17:05:45.328Z,11.90
2019-01-04T17:08:26.027Z,12.23
2019-01-04T17:11:06.916Z,11.37
2019-01-04T17:13:47.844Z,11.00
2019-01-04T17:16:28.669Z,11.27
2019-01-04T17:19:09.128Z,10.47
2019-01-04T17:21:49.825Z,10.60
2019-01-04T17:24:30.664Z,10.63
2019-01-04T17:27:11.732Z,11.10
2019-01-04T17:29:52.027Z,10.40
2019-01-04T17:32:32.702Z,10.37
2019-01-04T17:35:13.221Z,10.70
2019-01-04T17:37:53.855Z,9.47
2019-01-04T17:40:34.670Z,10.50
2019-01-04T17:43:15.407Z,10.50
2019-01-04T17:45:55.988Z,10.60
2019-01-04T17:48:36.593Z,9.53
2019-01-04T17:51:17.671Z,8.93
2019-01-04T17:53:58.305Z,10.50
2019-01-04T17:56:38.864Z,10.60
2019-01-04T17:59:19.167Z,10.30
2019-01-04T18:01:59.728Z,9.67
2019-01-04T18:04:40.479Z,10.00
2019-01-04T18:07:21.092Z,9.97
2019-01-04T18:10:01.454Z,10.47
2019-01-04T18:12:41.969Z,10.37
2019-01-04T18:15:22.550Z,9.87
2019-01-04T18:18:02.864Z,11.03
2019-01-04T18:20:43.329Z,11.47
2019-01-04T18:23:23.756Z,11.80
2019-01-04T18:26:04.477Z,11.97
2019-01-04T18:28:44.892Z,11.03
2019-01-04T18:31:25.547Z,11.83
2019-01-04T18:34:06.120Z,11.07
2019-01-04T18:36:46.760Z,12.40
2019-01-04T18:39:27.312Z,11.70
2019-01-04T18:42:08.339Z,11.60
2019-01-04T18:47:32.347Z,12.37
2019-01-04T18:52:56.183Z,11.90
2019-01-04T18:55:36.907Z,12.77
2019-01-04T18:58:17.552Z,11.40
2019-01-04T19:00:58.556Z,10.97
2019-01-04T19:03:38.763Z,11.67
2019-01-04T19:06:19.372Z,12.00
2019-01-04T19:09:00.252Z,11.20
2019-01-04T19:11:41.358Z,11.20
2019-01-04T19:14:21.945Z,11.13
2019-01-04T19:17:02.880Z,11.90
2019-01-04T19:19:43.465Z,11.93
2019-01-04T19:22:24.192Z,11.53
2019-01-04T19:25:04.537Z,12.47
2019-01-04T19:27:45.101Z,11.87
2019-01-04T19:33:08.752Z,12.70
2019-01-04T19:35:49.920Z,12.50
2019-01-04T19:38:30.546Z,13.40
2019-01-04T19:41:11.236Z,12.27
2019-01-04T19:43:52.177Z,12.60
2019-01-04T19:46:33.143Z,11.97
2019-01-04T19:49:13.879Z,13.10
2019-01-04T19:51:54.627Z,12.13
2019-01-04T19:54:34.933Z,12.97
2019-01-04T19:57:15.463Z,12.43
2019-01-04T19:59:56.062Z,12.60
2019-01-04T20:02:36.653Z,11.60
2019-01-04T20:05:17.860Z,11.83
2019-01-04T20:08:17.932Z,12.40
2019-01-04T20:11:17.450Z,12.40
2019-01-04T20:14:20.727Z,12.30
2019-01-04T20:17:20.878Z,11.03
2019-01-04T20:20:20.570Z,11.97
2019-01-04T20:23:19.948Z,11.60
2019-01-04T20:26:19.627Z,11.50
2019-01-04T20:29:22.246Z,10.17
2019-01-04T20:32:21.787Z,11.50
2019-01-04T20:38:43.826Z,11.53
2019-01-04T20:41:43.226Z,10.90
2019-01-04T20:44:41.253Z,11.00
2019-01-04T20:47:41.166Z,10.93
2019-01-04T20:50:40.996Z,11.03
2019-01-04T20:53:40.724Z,10.37
2019-01-04T20:56:40.069Z,11.30
2019-01-04T20:59:40.300Z,10.70
2019-01-04T21:02:38.105Z,11.47
2019-01-04T21:05:38.400Z,11.47
2019-01-04T21:08:37.773Z,10.60
2019-01-04T21:11:37.228Z,11.67
2019-01-04T21:14:54.314Z,12.10
2019-01-04T21:20:29.797Z,11.40
2019-01-04T21:23:32.543Z,10.43
2019-01-04T21:26:32.535Z,9.20
2019-01-04T21:29:31.002Z,10.63
2019-01-04T21:35:13.924Z,11.93
2019-01-04T21:38:04.979Z,11.03
2019-01-04T21:41:05.011Z,9.93
2019-01-04T21:44:05.246Z,11.30
2019-01-04T21:46:58.835Z,10.83
2019-01-04T21:49:58.767Z,10.30
2019-01-04T21:52:58.381Z,12.20
2019-01-04T21:55:58.715Z,9.63
2019-01-04T21:58:59.118Z,8.20
2019-01-04T22:01:59.365Z,9.17
2019-01-04T22:04:58.860Z,8.27
2019-01-04T22:10:44.644Z,8.40
2019-01-04T22:13:44.700Z,8.40
2019-01-04T22:16:44.970Z,7.70
2019-01-04T22:19:45.152Z,8.60
2019-01-04T22:22:44.567Z,8.40
2019-01-04T22:25:44.383Z,8.50
2019-01-04T22:28:43.796Z,8.23
2019-01-04T22:31:49.356Z,8.80
2019-01-04T22:34:49.435Z,8.07
2019-01-04T22:37:42.944Z,7.77
2019-01-04T22:40:42.477Z,8.20
2019-01-04T22:43:41.903Z,7.47
2019-01-04T22:46:48.891Z,6.70
2019-01-04T22:49:56.133Z,8.20
2019-01-04T22:53:03.128Z,8.17
2019-01-04T22:56:10.129Z,7.67
2019-01-04T22:59:17.161Z,7.77
2019-01-04T23:02:18.759Z,7.50
2019-01-04T23:05:25.775Z,7.50
2019-01-04T23:08:32.767Z,8.33
2019-01-04T23:11:39.773Z,7.50
2019-01-04T23:14:46.770Z,8.00
2019-01-04T23:17:53.789Z,7.50
2019-01-04T23:21:00.791Z,7.40
2019-01-04T23:24:07.795Z,8.47
2019-01-04T23:27:18.012Z,8.63
2019-01-04T23:30:25.143Z,7.47
2019-01-04T23:33:32.140Z,8.43
2019-01-04T23:36:39.143Z,8.33
2019-01-04T23:39:42.205Z,8.70
2019-01-04T23:45:44.464Z,8.03
2019-01-04T23:48:44.145Z,7.20
2019-01-04T23:51:44.409Z,7.43
2019-01-04T23:54:37.053Z,8.00
2019-01-04T23:57:42.547Z,7.33
